Terminal Aerodrome Forecast
Issued by NWS

Home | Current Version | Previous Version | Text Only | Print | Product List | Glossary On
Versions: 1 2 3 4 5 6 7 8 9 10 11 12 13 14 15 16 17 18 19 20 21 22 23 24 25 26 27
164
FTUS46 KSGX 240838 AAA
TAFSAN
TAF AMD
KSAN 240838Z 2409/2512 29005KT P6SM OVC007
     FM241600 28007KT P6SM SCT010 SCT200
     FM241800 28011KT P6SM SCT015 SCT200
     FM250300 27007KT P6SM OVC014=

USA.gov is the U.S. government's official web portal to all federal, state and local government web resources and services.